Time;durP1;ratioP1;P1;durP2;ratioP2;P2;SDS_P1;SDS_P2;PMS_P1;PMS_P2;Temp;Humidity;BMP_temperature;BMP_pressure;BME280_temperature;BME280_humidity;BME280_pressure;Samples;Min_cycle;Max_cycle;Signal;HPM_P1;HPM_P2
2022/08/26 00:01:11;;;;;;;30.33;23.45;;;23.40;99.90;;;;;;5051630;28;20163;-51
2022/08/26 00:03:38;;;;;;;26.55;22.30;;;23.40;99.90;;;;;;5051553;28;20210;-52
2022/08/26 00:06:04;;;;;;;28.15;22.75;;;23.40;99.90;;;;;;5051233;28;20571;-50
2022/08/26 00:08:29;;;;;;;22.80;19.10;;;23.40;99.90;;;;;;5054239;28;20562;-49
2022/08/26 00:10:55;;;;;;;21.25;17.70;;;23.40;99.90;;;;;;5055074;28;20167;-50
2022/08/26 00:13:21;;;;;;;21.25;17.80;;;23.40;99.90;;;;;;5054798;28;20241;-49
2022/08/26 00:15:46;;;;;;;26.70;21.10;;;23.40;99.90;;;;;;5054909;28;20535;-52
2022/08/26 00:18:13;;;;;;;27.00;23.45;;;23.20;99.90;;;;;;5054854;28;20202;-52
2022/08/26 00:20:39;;;;;;;29.33;23.70;;;23.20;99.90;;;;;;5055468;28;20265;-53
2022/08/26 00:23:05;;;;;;;31.98;26.83;;;23.10;99.90;;;;;;5054819;28;20167;-53
2022/08/26 00:25:31;;;;;;;36.47;30.33;;;23.00;99.90;;;;;;5054714;28;20605;-53
2022/08/26 00:27:57;;;;;;;34.00;30.35;;;23.10;99.90;;;;;;5054971;28;20258;-53
2022/08/26 00:30:26;;;;;;;40.63;33.40;;;23.00;99.90;;;;;;5054927;28;20527;-53
2022/08/26 00:32:52;;;;;;;38.05;33.47;;;23.00;99.90;;;;;;5054576;28;20246;-53
2022/08/26 00:35:18;;;;;;;43.03;35.05;;;22.90;99.90;;;;;;5054548;28;20162;-52
2022/08/26 00:37:44;;;;;;;38.00;33.40;;;22.90;99.90;;;;;;5054373;28;20652;-53
2022/08/26 00:40:14;;;;;;;38.17;33.83;;;22.90;99.90;;;;;;5054839;28;20373;-54
2022/08/26 00:42:40;;;;;;;44.88;35.63;;;22.80;99.90;;;;;;5054838;28;20618;-53
2022/08/26 00:45:07;;;;;;;42.30;37.90;;;22.90;99.90;;;;;;5054662;28;20691;-53
2022/08/26 00:47:37;;;;;;;43.42;37.92;;;22.80;99.90;;;;;;5054310;28;20249;-53
2022/08/26 00:50:09;;;;;;;43.13;37.97;;;22.80;99.90;;;;;;5054232;28;20167;-52
2022/08/26 00:52:35;;;;;;;50.70;40.80;;;22.80;99.90;;;;;;5054295;28;20163;-46
2022/08/26 00:55:18;;;;;;;50.15;39.63;;;22.80;99.90;;;;;;5054312;28;20631;-48
2022/08/26 00:57:44;;;;;;;45.70;40.83;;;22.70;99.90;;;;;;5054359;28;20178;-48
2022/08/26 01:00:17;;;;;;;49.53;42.63;;;22.70;99.90;;;;;;5054330;28;20618;-48
2022/08/26 01:02:43;;;;;;;49.28;44.00;;;22.70;99.90;;;;;;5054269;28;20174;-48
2022/08/26 01:05:10;;;;;;;50.83;43.75;;;22.70;99.90;;;;;;5054531;28;20170;-52
2022/08/26 01:07:36;;;;;;;53.67;47.22;;;22.60;99.90;;;;;;5054221;28;20535;-47
2022/08/26 01:10:08;;;;;;;58.15;49.13;;;22.70;99.90;;;;;;5053920;28;20163;-46
2022/08/26 01:12:39;;;;;;;55.05;47.75;;;22.70;99.90;;;;;;5054045;28;20225;-47
2022/08/26 01:15:07;;;;;;;54.63;47.38;;;22.60;99.90;;;;;;5053720;28;20661;-47
2022/08/26 01:17:32;;;;;;;55.17;47.10;;;22.60;99.90;;;;;;5053463;28;20171;-50
2022/08/26 01:20:21;;;;;;;56.78;47.85;;;22.60;99.90;;;;;;5053677;28;20324;-48
2022/08/26 01:23:02;;;;;;;53.45;46.88;;;22.60;99.90;;;;;;5053563;28;20695;-51
2022/08/26 01:25:32;;;;;;;53.60;46.08;;;22.60;99.90;;;;;;5053893;28;20182;-50
2022/08/26 01:28:01;;;;;;;51.60;45.25;;;22.60;99.90;;;;;;5053833;28;20544;-49
2022/08/26 01:30:28;;;;;;;56.40;45.70;;;22.60;99.90;;;;;;5053492;28;20175;-48
2022/08/26 01:32:57;;;;;;;52.75;44.10;;;22.50;99.90;;;;;;5053472;28;20159;-48
2022/08/26 01:35:23;;;;;;;52.70;44.70;;;22.50;99.90;;;;;;5053436;28;20167;-52
2022/08/26 01:37:52;;;;;;;51.50;43.63;;;22.40;99.90;;;;;;5053363;28;20674;-48
2022/08/26 01:40:25;;;;;;;50.90;42.08;;;22.50;99.90;;;;;;5053381;28;20219;-50
2022/08/26 01:42:53;;;;;;;49.55;43.22;;;22.40;99.90;;;;;;5052002;28;20170;-49
2022/08/26 01:45:23;;;;;;;47.92;41.15;;;22.50;99.90;;;;;;5053501;28;20190;-47
2022/08/26 01:47:52;;;;;;;46.38;40.60;;;22.50;99.90;;;;;;5053485;28;20177;-48
2022/08/26 01:50:21;;;;;;;53.88;42.55;;;22.30;99.90;;;;;;5053051;28;20236;-46
2022/08/26 01:52:48;;;;;;;51.55;42.08;;;22.40;99.90;;;;;;5053370;28;20224;-52
2022/08/26 01:55:16;;;;;;;49.53;42.45;;;22.30;99.90;;;;;;5053064;28;20159;-50
2022/08/26 01:57:44;;;;;;;46.13;38.92;;;22.20;99.90;;;;;;5052979;28;20175;-49
2022/08/26 02:00:14;;;;;;;43.47;37.08;;;22.20;99.90;;;;;;5053218;28;20669;-50
2022/08/26 02:02:45;;;;;;;45.10;38.42;;;22.20;99.90;;;;;;5053261;28;20166;-48
2022/08/26 02:05:18;;;;;;;41.70;37.22;;;22.20;99.90;;;;;;5052930;28;20638;-47
2022/08/26 02:07:44;;;;;;;44.40;37.33;;;22.20;99.90;;;;;;5052821;28;20167;-47
2022/08/26 02:10:10;;;;;;;43.55;36.85;;;22.20;99.90;;;;;;5053112;28;20210;-51
2022/08/26 02:12:37;;;;;;;46.05;38.47;;;22.10;99.90;;;;;;5052921;28;20225;-47
2022/08/26 02:15:06;;;;;;;48.25;38.13;;;22.20;99.90;;;;;;5052697;28;20167;-48
2022/08/26 02:17:43;;;;;;;43.38;38.40;;;22.10;99.90;;;;;;5052509;28;20258;-50
2022/08/26 02:20:13;;;;;;;45.08;36.10;;;22.10;99.90;;;;;;5053190;28;20197;-52
2022/08/26 02:22:40;;;;;;;44.30;36.67;;;22.10;99.90;;;;;;5052961;28;20166;-53
2022/08/26 02:25:30;;;;;;;41.50;36.13;;;22.10;99.90;;;;;;5053100;28;20198;-53
2022/08/26 02:27:56;;;;;;;50.80;36.25;;;22.10;99.90;;;;;;5052430;28;20780;-51
2022/08/26 02:30:27;;;;;;;41.53;35.92;;;22.00;99.90;;;;;;5052053;28;20181;-53
2022/08/26 02:32:53;;;;;;;44.08;34.75;;;22.10;99.90;;;;;;5052378;28;20257;-53
2022/08/26 02:35:21;;;;;;;43.40;35.70;;;21.90;99.90;;;;;;5052233;28;20200;-53
2022/08/26 02:37:48;;;;;;;40.95;35.75;;;22.10;99.90;;;;;;5052205;28;20166;-53
2022/08/26 02:40:17;;;;;;;39.28;33.17;;;22.00;99.90;;;;;;5052469;28;20171;-52
2022/08/26 02:42:42;;;;;;;37.85;30.85;;;22.00;99.90;;;;;;5051022;28;20162;-53
2022/08/26 02:45:09;;;;;;;41.33;35.10;;;22.00;99.90;;;;;;5052465;28;20171;-52
2022/08/26 02:47:36;;;;;;;42.35;33.45;;;22.10;99.90;;;;;;5052149;28;20520;-53
2022/08/26 02:50:02;;;;;;;43.03;33.78;;;22.00;99.90;;;;;;5052082;28;20158;-53
2022/08/26 02:52:28;;;;;;;39.75;33.10;;;22.00;99.90;;;;;;5051995;28;20174;-54
2022/08/26 02:54:54;;;;;;;41.25;34.50;;;21.80;99.90;;;;;;5050877;28;20212;-53
2022/08/26 02:57:20;;;;;;;36.30;31.60;;;22.00;99.90;;;;;;5051944;28;20167;-54
2022/08/26 02:59:45;;;;;;;38.55;31.80;;;21.90;99.90;;;;;;5052084;28;20578;-53
2022/08/26 03:02:11;;;;;;;40.55;32.25;;;22.00;99.90;;;;;;5051930;28;20166;-53
2022/08/26 03:04:38;;;;;;;38.47;31.25;;;21.90;99.90;;;;;;5052443;28;20174;-52
2022/08/26 03:07:05;;;;;;;38.45;33.65;;;21.90;99.90;;;;;;5051849;28;20198;-53
2022/08/26 03:09:31;;;;;;;36.78;31.35;;;21.90;99.90;;;;;;5050554;28;20221;-53
2022/08/26 03:11:58;;;;;;;40.42;31.35;;;22.00;99.90;;;;;;5051604;28;20166;-52
2022/08/26 03:14:24;;;;;;;35.80;30.25;;;21.90;99.90;;;;;;5051987;28;20234;-53
2022/08/26 03:16:51;;;;;;;43.83;33.75;;;21.90;99.90;;;;;;5051743;28;20675;-53
2022/08/26 03:19:17;;;;;;;41.72;32.17;;;22.00;99.90;;;;;;5051724;28;20648;-52
2022/08/26 03:21:43;;;;;;;45.92;37.10;;;22.10;99.90;;;;;;5051733;28;20158;-53
2022/08/26 03:24:10;;;;;;;39.15;33.42;;;22.00;99.90;;;;;;5052065;28;20170;-51
2022/08/26 03:26:35;;;;;;;39.95;33.67;;;22.10;99.90;;;;;;5052021;28;20212;-53
2022/08/26 03:31:45;;;;;;;37.70;32.33;;;22.00;99.90;;;;;;5051926;28;20170;-53
2022/08/26 03:34:11;;;;;;;41.40;29.63;;;22.10;99.90;;;;;;5051542;28;20543;-53
2022/08/26 03:36:37;;;;;;;36.75;30.00;;;22.00;99.90;;;;;;5051984;28;20190;-54
2022/08/26 03:39:03;;;;;;;37.58;29.13;;;22.00;99.90;;;;;;5051391;28;20229;-53
2022/08/26 03:41:31;;;;;;;34.95;28.58;;;22.00;99.90;;;;;;5053405;28;20166;-53
2022/08/26 03:43:57;;;;;;;31.73;28.25;;;22.00;99.90;;;;;;5055861;28;20238;-53
2022/08/26 03:46:23;;;;;;;34.58;26.88;;;22.00;99.90;;;;;;5055582;28;20198;-53
2022/08/26 03:48:48;;;;;;;34.88;25.83;;;21.90;99.90;;;;;;5055518;28;20649;-53
2022/08/26 03:51:17;;;;;;;33.13;26.35;;;21.90;99.90;;;;;;5055397;28;20174;-47
2022/08/26 03:53:43;;;;;;;35.03;26.05;;;21.90;99.90;;;;;;5055693;28;20202;-46
2022/08/26 03:56:09;;;;;;;35.05;25.45;;;21.90;99.90;;;;;;5055691;28;20170;-46
2022/08/26 03:58:35;;;;;;;32.00;24.20;;;21.90;99.90;;;;;;5055178;28;20194;-46
2022/08/26 04:01:01;;;;;;;30.40;23.58;;;21.80;99.90;;;;;;5054330;28;20186;-49
2022/08/26 04:06:11;;;;;;;28.33;22.13;;;21.90;99.90;;;;;;5055209;28;20547;-50
2022/08/26 04:08:37;;;;;;;25.13;22.45;;;21.90;99.90;;;;;;5055424;28;20161;-53
2022/08/26 04:11:04;;;;;;;29.45;22.30;;;21.90;99.90;;;;;;5055054;28;20257;-52
2022/08/26 04:13:30;;;;;;;25.17;22.58;;;21.90;99.90;;;;;;5055039;28;20260;-52
2022/08/26 04:15:56;;;;;;;27.65;21.00;;;21.90;99.90;;;;;;5055254;28;20194;-51
2022/08/26 04:18:22;;;;;;;26.30;20.88;;;21.90;99.90;;;;;;5054737;28;20678;-52
2022/08/26 04:20:48;;;;;;;25.92;19.40;;;21.90;99.90;;;;;;5055053;28;20177;-51
2022/08/26 04:23:15;;;;;;;26.33;18.95;;;21.80;99.90;;;;;;5054837;28;20169;-52
2022/08/26 04:25:41;;;;;;;22.25;18.17;;;21.80;99.90;;;;;;5054737;28;20661;-53
2022/08/26 04:28:06;;;;;;;26.52;18.90;;;21.80;99.90;;;;;;5055159;28;20199;-54
2022/08/26 04:30:36;;;;;;;21.73;18.50;;;21.80;99.90;;;;;;5054919;28;20210;-54
2022/08/26 04:33:03;;;;;;;30.75;19.52;;;21.80;99.90;;;;;;5054591;28;20175;-53
2022/08/26 04:35:29;;;;;;;19.67;17.05;;;21.80;99.90;;;;;;5054473;28;20632;-53
2022/08/26 04:37:55;;;;;;;24.10;18.23;;;21.80;99.90;;;;;;5054477;28;20175;-53
2022/08/26 04:40:21;;;;;;;22.40;17.25;;;21.80;99.90;;;;;;5054534;28;20175;-52
2022/08/26 04:42:47;;;;;;;24.20;17.13;;;21.80;99.90;;;;;;5054628;28;20169;-51
2022/08/26 04:45:13;;;;;;;21.42;16.98;;;21.80;99.90;;;;;;5054709;28;20170;-53
2022/08/26 04:47:38;;;;;;;21.63;16.05;;;21.80;99.90;;;;;;5054820;28;20163;-53
2022/08/26 04:50:05;;;;;;;18.67;15.60;;;21.80;99.90;;;;;;5054323;28;20174;-54
2022/08/26 04:52:31;;;;;;;20.75;14.85;;;21.80;99.90;;;;;;5053669;28;20222;-51
2022/08/26 04:54:56;;;;;;;17.25;15.27;;;21.80;99.90;;;;;;5054205;28;20297;-54
2022/08/26 04:57:22;;;;;;;17.10;15.38;;;21.90;99.90;;;;;;5053963;28;20303;-52
2022/08/26 04:59:48;;;;;;;23.95;14.80;;;21.90;99.90;;;;;;5054314;28;20217;-53
2022/08/26 05:02:13;;;;;;;21.00;13.93;;;22.00;99.90;;;;;;5054104;28;20248;-52
2022/08/26 05:04:42;;;;;;;20.85;13.63;;;21.90;99.90;;;;;;5054379;28;20174;-49
2022/08/26 05:07:09;;;;;;;17.65;13.30;;;21.90;99.90;;;;;;5054583;28;20181;-51
2022/08/26 05:09:35;;;;;;;18.88;13.05;;;21.80;99.90;;;;;;5054542;28;20171;-53
2022/08/26 05:12:01;;;;;;;21.33;12.95;;;21.80;99.90;;;;;;5054097;28;20246;-53
2022/08/26 05:14:27;;;;;;;20.20;11.68;;;21.80;99.90;;;;;;5053906;28;20266;-52
2022/08/26 05:16:52;;;;;;;16.08;11.68;;;21.90;99.90;;;;;;5053868;28;20225;-52
2022/08/26 05:19:18;;;;;;;17.08;10.73;;;21.90;99.90;;;;;;5053813;28;20206;-51
2022/08/26 05:21:44;;;;;;;15.55;11.00;;;21.90;99.90;;;;;;5053724;28;20577;-53
2022/08/26 05:24:11;;;;;;;14.57;10.88;;;21.90;99.90;;;;;;5053703;28;20202;-46
2022/08/26 05:26:36;;;;;;;15.27;10.77;;;21.90;99.90;;;;;;5053838;28;20231;-53
2022/08/26 05:29:02;;;;;;;20.67;11.25;;;21.90;99.90;;;;;;5053655;28;20159;-54
2022/08/26 05:31:30;;;;;;;20.98;10.13;;;21.90;99.90;;;;;;5053512;28;20611;-51
2022/08/26 05:33:56;;;;;;;19.15;10.32;;;21.90;99.90;;;;;;5053804;28;20178;-51
2022/08/26 05:36:26;;;;;;;16.90;10.48;;;21.90;99.90;;;;;;5053807;28;20536;-49
2022/08/26 05:38:51;;;;;;;14.40;10.00;;;22.00;99.90;;;;;;5053253;28;20209;-50
2022/08/26 05:41:23;;;;;;;18.38;8.95;;;22.00;99.90;;;;;;5053297;28;20171;-50
2022/08/26 05:43:49;;;;;;;12.32;8.60;;;22.10;99.90;;;;;;5053573;28;20178;-51
2022/08/26 05:46:16;;;;;;;14.10;9.15;;;22.10;99.90;;;;;;5053316;28;20174;-51
2022/08/26 05:48:41;;;;;;;11.75;8.48;;;22.10;99.90;;;;;;5053195;28;20619;-50
2022/08/26 05:51:09;;;;;;;15.75;8.60;;;22.10;99.90;;;;;;5053642;28;20188;-49
2022/08/26 05:53:36;;;;;;;13.25;8.15;;;22.20;99.90;;;;;;5052053;28;20171;-50
2022/08/26 05:56:03;;;;;;;14.85;8.00;;;22.20;99.90;;;;;;5052972;28;20257;-48
2022/08/26 05:58:29;;;;;;;14.50;8.25;;;22.10;99.90;;;;;;5052607;28;20289;-49
2022/08/26 06:01:14;;;;;;;11.85;8.20;;;22.20;99.90;;;;;;5052552;28;20694;-50
2022/08/26 06:03:43;;;;;;;13.43;7.63;;;22.10;99.90;;;;;;5052772;28;20253;-52
2022/08/26 06:06:19;;;;;;;12.38;7.60;;;22.20;99.90;;;;;;5051526;28;20190;-45
2022/08/26 06:08:45;;;;;;;15.25;8.18;;;22.20;99.90;;;;;;5052391;28;20178;-51
2022/08/26 06:11:13;;;;;;;14.57;8.40;;;22.20;99.90;;;;;;5052612;28;20165;-50
2022/08/26 06:13:39;;;;;;;13.75;7.22;;;22.30;99.90;;;;;;5052490;28;20697;-48
2022/08/26 06:16:09;;;;;;;13.55;6.95;;;22.30;99.90;;;;;;5053178;28;20181;-49
2022/08/26 06:18:38;;;;;;;12.50;7.57;;;22.40;99.90;;;;;;5053142;28;20229;-48
2022/08/26 06:21:16;;;;;;;9.98;6.97;;;22.50;99.90;;;;;;5052448;28;20175;-48
2022/08/26 06:26:27;;;;;;;12.00;6.88;;;22.50;99.90;;;;;;5052778;28;20713;-48
2022/08/26 06:28:54;;;;;;;12.52;7.03;;;22.40;99.90;;;;;;5052449;28;20191;-48
2022/08/26 06:31:20;;;;;;;10.30;7.93;;;22.60;99.90;;;;;;5052409;28;20163;-47
2022/08/26 06:33:46;;;;;;;9.60;7.07;;;22.50;99.90;;;;;;5052416;28;20178;-47
2022/08/26 06:36:18;;;;;;;13.05;7.50;;;22.60;99.90;;;;;;5052333;28;20519;-49
2022/08/26 06:38:44;;;;;;;16.65;7.28;;;22.60;99.90;;;;;;5052671;28;20194;-47
2022/08/26 06:41:10;;;;;;;12.13;7.13;;;22.60;99.90;;;;;;5052174;28;20186;-47
2022/08/26 06:43:37;;;;;;;11.05;6.97;;;22.50;99.90;;;;;;5052794;28;20174;-50
2022/08/26 06:46:07;;;;;;;16.52;7.47;;;22.60;99.90;;;;;;5052116;28;20549;-45
2022/08/26 06:48:33;;;;;;;19.98;8.73;;;22.50;99.90;;;;;;5052154;28;20661;-45
2022/08/26 06:51:20;;;;;;;18.15;7.70;;;22.60;99.90;;;;;;5052238;28;21203;-45
2022/08/26 06:53:48;;;;;;;14.98;6.88;;;22.60;99.90;;;;;;5052096;28;20174;-46
2022/08/26 06:56:16;;;;;;;10.60;6.78;;;22.50;99.90;;;;;;5051978;28;20242;-45
2022/08/26 06:58:42;;;;;;;16.70;6.72;;;22.40;99.90;;;;;;5051873;28;20271;-47
2022/08/26 07:01:25;;;;;;;14.70;8.13;;;22.40;99.90;;;;;;5052230;28;20170;-47
2022/08/26 07:03:53;;;;;;;16.15;6.50;;;22.30;99.90;;;;;;5051958;28;20181;-45
2022/08/26 07:06:19;;;;;;;13.68;6.85;;;22.30;99.90;;;;;;5051930;28;20159;-45
2022/08/26 07:08:46;;;;;;;11.68;6.38;;;22.30;99.90;;;;;;5050634;28;20171;-45
2022/08/26 07:11:12;;;;;;;11.15;6.70;;;22.30;99.90;;;;;;5051817;28;20571;-45
2022/08/26 07:13:38;;;;;;;14.35;5.60;;;22.20;99.90;;;;;;5051982;28;20305;-47
2022/08/26 07:16:11;;;;;;;10.45;6.85;;;22.30;99.90;;;;;;5051945;28;20536;-48
2022/08/26 07:18:38;;;;;;;11.50;6.47;;;22.40;99.90;;;;;;5052064;28;20198;-46
2022/08/26 07:21:07;;;;;;;11.32;6.25;;;22.30;99.90;;;;;;5052072;28;20304;-46
2022/08/26 07:23:34;;;;;;;9.40;5.85;;;22.30;99.90;;;;;;5051721;28;20166;-48
2022/08/26 07:26:08;;;;;;;12.98;6.80;;;22.30;99.90;;;;;;5050435;28;20170;-47
2022/08/26 07:28:34;;;;;;;11.20;6.43;;;22.40;99.90;;;;;;5052058;28;20307;-46
2022/08/26 07:31:08;;;;;;;12.05;6.63;;;22.40;99.90;;;;;;5051767;28;20245;-47
2022/08/26 07:33:34;;;;;;;13.40;8.13;;;22.30;99.90;;;;;;5051994;28;20175;-46
2022/08/26 07:36:00;;;;;;;13.82;11.45;;;22.30;99.90;;;;;;5051458;28;20725;-46
2022/08/26 07:38:26;;;;;;;14.15;11.52;;;22.30;99.90;;;;;;5051679;28;20277;-48
2022/08/26 07:40:51;;;;;;;14.02;10.88;;;22.40;99.90;;;;;;5051467;28;20163;-50
2022/08/26 07:43:17;;;;;;;12.38;9.20;;;22.40;99.90;;;;;;5051520;28;20175;-46
2022/08/26 07:45:43;;;;;;;11.60;8.73;;;22.30;99.90;;;;;;5051452;28;20166;-48
2022/08/26 07:48:08;;;;;;;12.60;9.60;;;22.30;99.90;;;;;;5051461;28;20718;-45
2022/08/26 07:50:34;;;;;;;13.88;9.57;;;22.40;99.90;;;;;;5051746;28;20170;-48
2022/08/26 07:53:01;;;;;;;10.52;8.45;;;22.30;99.90;;;;;;5051439;28;20166;-49
2022/08/26 07:55:27;;;;;;;12.55;8.55;;;22.30;99.90;;;;;;5051318;28;20163;-47
2022/08/26 07:57:53;;;;;;;11.70;8.20;;;22.40;99.90;;;;;;5051350;28;20166;-48
2022/08/26 08:00:19;;;;;;;9.48;7.32;;;22.40;99.90;;;;;;5051380;28;20658;-46
2022/08/26 08:02:45;;;;;;;13.13;7.57;;;22.40;99.90;;;;;;5051550;28;20214;-52
2022/08/26 08:05:13;;;;;;;12.65;7.00;;;22.40;99.90;;;;;;5051357;28;20167;-50
2022/08/26 08:07:39;;;;;;;11.98;7.05;;;22.40;99.90;;;;;;5051342;28;20488;-48
2022/08/26 08:10:06;;;;;;;13.07;6.85;;;22.50;99.90;;;;;;5051850;28;20190;-50
2022/08/26 08:12:32;;;;;;;11.55;6.78;;;22.40;99.90;;;;;;5051079;28;20698;-50
2022/08/26 08:14:57;;;;;;;10.20;6.75;;;22.50;99.90;;;;;;5051208;28;20301;-46
2022/08/26 08:17:23;;;;;;;12.18;6.20;;;22.50;99.90;;;;;;5051179;28;20171;-51
2022/08/26 08:19:48;;;;;;;7.95;5.95;;;22.60;99.90;;;;;;5051425;28;20293;-49
2022/08/26 08:22:15;;;;;;;13.38;7.80;;;22.50;99.90;;;;;;5051151;28;20174;-52
2022/08/26 08:24:41;;;;;;;7.40;6.13;;;22.50;99.90;;;;;;5051119;28;20174;-48
2022/08/26 08:27:07;;;;;;;9.93;7.47;;;22.50;99.90;;;;;;5051419;28;20171;-47
2022/08/26 08:29:35;;;;;;;18.38;8.48;;;22.50;99.90;;;;;;5054757;28;20550;-46
2022/08/26 08:32:02;;;;;;;11.95;7.00;;;22.60;99.90;;;;;;5054761;28;20167;-46
2022/08/26 08:34:28;;;;;;;9.52;6.32;;;22.60;99.90;;;;;;5054679;28;20246;-53
2022/08/26 08:36:54;;;;;;;9.27;6.53;;;22.70;99.90;;;;;;5054752;28;20198;-53
2022/08/26 08:39:20;;;;;;;13.00;6.55;;;22.70;99.90;;;;;;5054736;28;20622;-53
2022/08/26 08:42:10;;;;;;;6.82;6.13;;;22.60;99.90;;;;;;5054598;28;20163;-53
2022/08/26 08:44:40;;;;;;;11.57;7.03;;;22.70;99.90;;;;;;5055035;28;20565;-53
2022/08/26 08:47:24;;;;;;;10.65;6.32;;;22.70;99.90;;;;;;5054923;28;20693;-53
2022/08/26 08:49:51;;;;;;;9.63;6.32;;;22.80;99.90;;;;;;5053144;28;20261;-53
2022/08/26 08:52:26;;;;;;;8.73;6.30;;;22.80;99.90;;;;;;5054388;28;20171;-52
2022/08/26 08:54:52;;;;;;;11.90;5.10;;;22.90;99.90;;;;;;5054529;28;20174;-52
2022/08/26 08:57:31;;;;;;;9.57;6.00;;;22.90;99.90;;;;;;5054199;28;20233;-53
2022/08/26 09:00:07;;;;;;;9.73;5.50;;;23.00;99.90;;;;;;5054015;28;20206;-51
2022/08/26 09:02:40;;;;;;;10.63;5.53;;;22.90;99.90;;;;;;5054420;28;20173;-51
2022/08/26 09:05:28;;;;;;;12.52;5.82;;;23.00;99.90;;;;;;5054464;28;20280;-52
2022/08/26 09:08:08;;;;;;;7.20;5.30;;;23.00;99.90;;;;;;5054265;28;20175;-52
2022/08/26 09:10:44;;;;;;;7.88;5.55;;;23.00;99.90;;;;;;5054675;28;20171;-53
2022/08/26 09:13:13;;;;;;;12.40;5.78;;;23.10;99.90;;;;;;5053805;28;20210;-51
2022/08/26 09:16:24;;;;;;;7.57;6.10;;;23.00;99.90;;;;;;5053988;28;20258;-51
2022/08/26 09:19:14;;;;;;;8.75;7.10;;;23.00;99.90;;;;;;5050875;28;20221;-52
2022/08/26 09:21:40;;;;;;;8.77;6.85;;;23.00;99.90;;;;;;5053786;28;20178;-51
2022/08/26 09:24:06;;;;;;;7.85;6.40;;;23.00;99.90;;;;;;5052816;28;20166;-48
2022/08/26 09:26:37;;;;;;;7.50;5.57;;;23.00;99.90;;;;;;5053654;28;20185;-49
2022/08/26 09:29:09;;;;;;;9.02;6.07;;;23.00;99.90;;;;;;5052709;28;20171;-49
2022/08/26 09:31:37;;;;;;;11.40;5.40;;;23.00;99.90;;;;;;5053887;28;20163;-51
2022/08/26 09:34:20;;;;;;;7.95;5.18;;;23.00;99.90;;;;;;5054134;28;20171;-50
2022/08/26 09:36:57;;;;;;;9.00;5.03;;;23.00;99.90;;;;;;5053782;28;20174;-48
2022/08/26 09:39:23;;;;;;;8.95;5.38;;;23.00;99.90;;;;;;5053139;28;20689;-44
2022/08/26 09:42:23;;;;;;;8.05;5.35;;;23.00;99.90;;;;;;5053385;28;20237;-45
2022/08/26 09:44:58;;;;;;;7.90;4.75;;;23.00;99.90;;;;;;5053598;28;20315;-45
2022/08/26 09:47:29;;;;;;;7.85;4.70;;;23.10;99.90;;;;;;5053523;28;20292;-46
2022/08/26 09:50:38;;;;;;;8.70;5.05;;;23.10;99.90;;;;;;5053361;28;20174;-45
2022/08/26 09:53:22;;;;;;;7.93;5.57;;;23.30;99.90;;;;;;5031381;28;20171;-45
2022/08/26 09:55:51;;;;;;;7.25;4.63;;;23.20;99.90;;;;;;5031102;28;20261;-45
2022/08/26 09:58:38;;;;;;;7.45;4.30;;;23.20;99.90;;;;;;5044454;28;20265;-47
2022/08/26 10:01:16;;;;;;;7.78;4.47;;;23.30;99.90;;;;;;5053233;28;20182;-46
2022/08/26 10:03:43;;;;;;;4.80;4.13;;;23.30;99.90;;;;;;5053274;28;20258;-48
2022/08/26 10:06:20;;;;;;;7.80;4.13;;;23.30;99.90;;;;;;5053195;28;20174;-46
2022/08/26 10:08:50;;;;;;;7.07;4.60;;;23.40;99.90;;;;;;5052932;28;20175;-48
2022/08/26 10:11:26;;;;;;;7.63;3.60;;;23.40;99.90;;;;;;5052719;28;20170;-47
2022/08/26 10:14:08;;;;;;;8.85;3.58;;;23.40;99.90;;;;;;5052569;28;20580;-46
2022/08/26 10:16:53;;;;;;;6.70;3.20;;;23.60;99.90;;;;;;5053179;28;20173;-46
2022/08/26 10:19:24;;;;;;;6.75;3.80;;;23.60;99.90;;;;;;5052677;28;20202;-46
2022/08/26 10:22:12;;;;;;;5.07;3.50;;;23.60;99.90;;;;;;5052941;28;20503;-46
2022/08/26 10:24:46;;;;;;;5.10;3.20;;;23.70;99.90;;;;;;5052688;28;20240;-52
2022/08/26 10:27:33;;;;;;;9.38;3.25;;;23.70;99.90;;;;;;5052519;28;20175;-53
2022/08/26 10:30:06;;;;;;;6.85;3.10;;;23.70;99.90;;;;;;5052814;28;20253;-53
2022/08/26 10:32:35;;;;;;;6.38;3.30;;;23.80;99.90;;;;;;5052459;28;20190;-52
2022/08/26 10:35:01;;;;;;;9.43;3.47;;;23.90;99.90;;;;;;5051163;28;20181;-53
2022/08/26 10:37:36;;;;;;;5.55;3.25;;;23.90;99.90;;;;;;5052376;28;20159;-53
2022/08/26 10:40:14;;;;;;;7.18;3.33;;;23.90;99.90;;;;;;5052293;28;20216;-52
2022/08/26 10:43:09;;;;;;;7.28;3.25;;;23.90;99.90;;;;;;5052308;28;20166;-48
2022/08/26 10:45:41;;;;;;;7.45;3.10;;;23.90;99.90;;;;;;5052631;28;20166;-51
2022/08/26 10:48:13;;;;;;;5.88;3.50;;;24.00;99.90;;;;;;5052639;28;20212;-47
2022/08/26 10:50:42;;;;;;;5.80;3.15;;;24.00;99.90;;;;;;5051596;28;20181;-49
2022/08/26 10:53:22;;;;;;;7.40;3.30;;;24.10;99.90;;;;;;5052088;28;20181;-45
2022/08/26 10:56:13;;;;;;;6.35;2.85;;;24.30;99.90;;;;;;5052329;28;20185;-45
2022/08/26 10:59:19;;;;;;;6.53;3.05;;;24.20;99.90;;;;;;5051952;28;20226;-51
2022/08/26 11:01:56;;;;;;;11.02;3.42;;;24.10;99.90;;;;;;5041237;28;20264;-51
2022/08/26 11:04:46;;;;;;;8.13;3.38;;;24.10;99.90;;;;;;5052000;28;20194;-51
2022/08/26 11:07:31;;;;;;;6.50;3.22;;;23.90;99.90;;;;;;5052137;28;20167;-49
2022/08/26 11:10:16;;;;;;;6.10;3.38;;;23.90;99.90;;;;;;5050689;28;20650;-51
2022/08/26 11:12:41;;;;;;;7.07;3.30;;;23.80;99.90;;;;;;5051859;28;20228;-52
2022/08/26 11:15:11;;;;;;;4.50;2.60;;;23.90;99.90;;;;;;5052132;28;20241;-45
2022/08/26 11:17:43;;;;;;;6.78;3.40;;;23.90;99.90;;;;;;5052023;28;20170;-48
2022/08/26 11:20:44;;;;;;;6.65;2.70;;;23.90;99.90;;;;;;5051705;28;20248;-49
2022/08/26 11:23:15;;;;;;;5.97;3.67;;;23.90;99.90;;;;;;5051945;28;20240;-51
2022/08/26 11:26:08;;;;;;;7.60;2.92;;;23.90;99.90;;;;;;5051731;28;20174;-51
2022/08/26 11:28:43;;;;;;;5.70;3.10;;;24.00;99.90;;;;;;5052019;28;20185;-51
2022/08/26 11:31:29;;;;;;;6.72;2.70;;;24.00;99.90;;;;;;5051878;28;20166;-49
2022/08/26 11:33:58;;;;;;;8.90;3.17;;;24.00;99.90;;;;;;5051463;28;20224;-50
2022/08/26 11:36:36;;;;;;;4.45;2.88;;;23.90;99.90;;;;;;5050292;28;20177;-50
2022/08/26 11:39:13;;;;;;;3.92;2.72;;;23.90;99.90;;;;;;5051843;28;20198;-50
2022/08/26 11:41:43;;;;;;;10.55;3.15;;;23.90;99.90;;;;;;5051534;28;20201;-51
2022/08/26 11:44:09;;;;;;;8.63;3.05;;;24.00;99.90;;;;;;5051562;28;20171;-50
2022/08/26 11:46:36;;;;;;;8.35;2.97;;;24.00;99.90;;;;;;5051846;28;20171;-52
2022/08/26 11:49:06;;;;;;;5.68;3.22;;;24.10;99.90;;;;;;5052067;28;20178;-51
2022/08/26 11:51:34;;;;;;;8.05;2.80;;;24.10;99.90;;;;;;5051886;28;20170;-52
2022/08/26 11:54:18;;;;;;;6.72;3.30;;;24.10;99.90;;;;;;5051336;28;20740;-53
2022/08/26 11:56:46;;;;;;;7.10;2.78;;;24.00;99.90;;;;;;5051745;28;20519;-52
2022/08/26 11:59:17;;;;;;;7.78;2.65;;;24.00;99.90;;;;;;5051269;28;20206;-54
2022/08/26 12:01:47;;;;;;;5.95;2.63;;;24.00;99.90;;;;;;5051344;28;20578;-53
2022/08/26 12:04:27;;;;;;;2.63;2.40;;;23.90;99.90;;;;;;5054095;28;20175;-50
2022/08/26 12:06:53;;;;;;;8.43;2.63;;;23.90;99.90;;;;;;5053854;28;20539;-53
2022/08/26 12:09:33;;;;;;;11.40;3.53;;;23.80;99.90;;;;;;5055432;28;20178;-50
2022/08/26 12:12:30;;;;;;;4.65;3.45;;;23.70;99.90;;;;;;5055186;28;20170;-49
2022/08/26 12:15:17;;;;;;;5.65;2.70;;;23.80;99.90;;;;;;5050661;28;20194;-48
2022/08/26 12:17:45;;;;;;;7.90;3.25;;;23.80;99.90;;;;;;5053841;28;20253;-52
2022/08/26 12:20:47;;;;;;;9.50;3.88;;;23.80;99.90;;;;;;5054881;28;20233;-52
2022/08/26 12:23:33;;;;;;;5.93;2.97;;;23.70;99.90;;;;;;5054893;28;20173;-51
2022/08/26 12:26:21;;;;;;;8.38;3.13;;;23.60;99.90;;;;;;5054759;28;20166;-53
2022/08/26 12:29:05;;;;;;;9.15;3.10;;;23.60;99.90;;;;;;5051781;28;20297;-52
2022/08/26 12:31:42;;;;;;;8.45;2.90;;;23.60;99.90;;;;;;5054762;28;20174;-45
2022/08/26 12:34:15;;;;;;;12.43;3.35;;;23.50;99.90;;;;;;5054950;28;20225;-45
2022/08/26 12:36:55;;;;;;;10.45;2.60;;;23.50;99.90;;;;;;5054667;28;20644;-45
2022/08/26 12:39:35;;;;;;;8.65;2.75;;;23.50;99.90;;;;;;5054810;28;20205;-45
2022/08/26 12:42:14;;;;;;;9.88;3.10;;;23.50;99.90;;;;;;5054863;28;20196;-46
2022/08/26 12:45:02;;;;;;;11.27;2.97;;;23.50;99.90;;;;;;5054439;28;20635;-48
2022/08/26 12:47:32;;;;;;;5.40;2.92;;;23.40;99.90;;;;;;5054396;28;20626;-47
2022/08/26 12:50:09;;;;;;;7.38;2.60;;;23.40;99.90;;;;;;5054699;28;20219;-45
2022/08/26 12:52:42;;;;;;;4.30;2.28;;;23.40;99.90;;;;;;5054598;28;20204;-46
2022/08/26 12:55:41;;;;;;;6.82;2.60;;;23.50;99.90;;;;;;5054373;28;20242;-45
2022/08/26 12:58:14;;;;;;;4.32;2.80;;;23.60;99.90;;;;;;5051134;28;20190;-45
2022/08/26 13:00:48;;;;;;;4.40;2.50;;;23.70;99.90;;;;;;5054257;28;20716;-47
2022/08/26 13:03:33;;;;;;;4.93;2.30;;;23.70;99.90;;;;;;5054387;28;20178;-52